createdAt,value
2018-04-26T00:00:53.073Z,3.10
2018-04-26T00:03:18.904Z,2.70
2018-04-26T00:05:44.766Z,2.50
2018-04-26T00:08:10.615Z,2.50
2018-04-26T00:10:36.463Z,2.07
2018-04-26T00:13:02.314Z,2.33
2018-04-26T00:15:28.175Z,2.23
2018-04-26T00:17:54.040Z,2.33
2018-04-26T00:20:19.902Z,2.10
2018-04-26T00:22:45.735Z,2.13
2018-04-26T00:25:11.605Z,2.00
2018-04-26T00:27:37.428Z,2.10
2018-04-26T00:30:03.292Z,2.10
2018-04-26T00:32:29.148Z,1.90
2018-04-26T00:34:55.004Z,1.70
2018-04-26T00:37:20.873Z,1.80
2018-04-26T00:39:46.710Z,1.90
2018-04-26T00:42:12.573Z,1.67
2018-04-26T00:44:45.292Z,1.60
2018-04-26T00:47:11.158Z,1.70
2018-04-26T00:49:37.006Z,1.57
2018-04-26T00:52:02.880Z,1.63
2018-04-26T00:54:28.765Z,1.80
2018-04-26T00:56:54.624Z,1.70
2018-04-26T00:59:20.455Z,1.70
2018-04-26T01:01:46.341Z,1.77
2018-04-26T01:04:12.177Z,1.60
2018-04-26T01:06:38.053Z,1.67
2018-04-26T01:09:03.960Z,1.33
2018-04-26T01:11:29.817Z,1.37
2018-04-26T01:13:55.911Z,1.57
2018-04-26T01:16:21.801Z,1.70
2018-04-26T01:18:47.631Z,1.80
2018-04-26T01:21:13.489Z,1.63
2018-04-26T01:23:39.345Z,1.60
2018-04-26T01:26:05.220Z,1.70
2018-04-26T01:28:31.060Z,1.60
2018-04-26T01:30:56.906Z,1.57
2018-04-26T01:33:22.774Z,1.60
2018-04-26T01:35:48.663Z,1.80
2018-04-26T01:38:14.503Z,1.80
2018-04-26T01:40:40.350Z,1.90
2018-04-26T01:43:06.196Z,2.10
2018-04-26T01:45:32.063Z,1.80
2018-04-26T01:47:57.918Z,1.80
2018-04-26T01:50:23.826Z,1.90
2018-04-26T01:52:49.733Z,2.10
2018-04-26T01:55:15.591Z,1.80
2018-04-26T01:57:41.912Z,1.80
2018-04-26T02:00:07.793Z,1.80
2018-04-26T02:02:33.670Z,2.20
2018-04-26T02:04:59.523Z,2.00
2018-04-26T02:07:25.370Z,1.90
2018-04-26T02:09:51.238Z,1.80
2018-04-26T02:12:17.072Z,2.00
2018-04-26T02:14:42.921Z,2.10
2018-04-26T02:17:08.959Z,1.83
2018-04-26T02:19:34.813Z,2.10
2018-04-26T02:22:00.700Z,2.10
2018-04-26T02:24:33.492Z,2.37
2018-04-26T02:26:59.337Z,2.53
2018-04-26T02:29:25.171Z,2.90
2018-04-26T02:31:50.997Z,3.10
2018-04-26T02:34:16.898Z,2.87
2018-04-26T02:36:42.786Z,2.90
2018-04-26T02:39:08.635Z,3.13
2018-04-26T02:41:34.469Z,3.93
2018-04-26T02:44:00.320Z,3.73
2018-04-26T02:46:26.171Z,4.40
2018-04-26T02:48:52.041Z,3.90
2018-04-26T02:51:17.891Z,3.30
2018-04-26T02:53:43.766Z,4.50
2018-04-26T02:56:09.628Z,4.43
2018-04-26T02:58:35.500Z,4.30
2018-04-26T03:01:01.338Z,4.70
2018-04-26T03:03:27.210Z,4.67
2018-04-26T03:05:53.080Z,4.90
2018-04-26T03:08:19.031Z,4.73
2018-04-26T03:10:44.853Z,4.20
2018-04-26T03:13:10.682Z,4.73
2018-04-26T03:15:36.552Z,5.13
2018-04-26T03:18:02.431Z,4.80
2018-04-26T03:20:28.305Z,4.73
2018-04-26T03:22:54.144Z,5.00
2018-04-26T03:25:19.987Z,4.87
2018-04-26T03:27:45.839Z,5.10
2018-04-26T03:30:11.802Z,5.27
2018-04-26T03:32:37.685Z,5.00
2018-04-26T03:35:03.580Z,5.10
2018-04-26T03:37:29.440Z,5.63
2018-04-26T03:39:55.299Z,5.07
2018-04-26T03:42:21.151Z,5.00
2018-04-26T03:44:47.020Z,4.97
2018-04-26T03:47:12.867Z,5.03
2018-04-26T03:49:38.711Z,5.27
2018-04-26T03:52:04.547Z,5.07
2018-04-26T03:54:30.396Z,5.33
2018-04-26T03:56:56.219Z,5.57
2018-04-26T03:59:22.121Z,5.80
2018-04-26T04:01:54.074Z,5.27
2018-04-26T04:04:26.166Z,5.03
2018-04-26T04:06:51.987Z,5.10
2018-04-26T04:09:17.821Z,5.47
2018-04-26T04:11:43.650Z,5.10
2018-04-26T04:14:09.532Z,4.47
2018-04-26T04:16:35.505Z,3.87
2018-04-26T04:19:01.348Z,3.47
2018-04-26T04:21:27.207Z,3.47
2018-04-26T04:23:53.076Z,3.50
2018-04-26T04:26:18.920Z,3.40
2018-04-26T04:28:44.745Z,3.30
2018-04-26T04:31:10.613Z,3.33
2018-04-26T04:33:36.465Z,3.47
2018-04-26T04:36:02.352Z,3.37
2018-04-26T04:38:28.200Z,3.30
2018-04-26T04:40:54.048Z,3.30
2018-04-26T04:43:19.897Z,3.23
2018-04-26T04:45:45.794Z,3.07
2018-04-26T04:48:11.623Z,2.90
2018-04-26T04:50:37.496Z,3.30
2018-04-26T04:53:03.339Z,3.30
2018-04-26T04:55:29.178Z,3.60
2018-04-26T04:57:55.038Z,3.60
2018-04-26T05:00:20.888Z,3.30
2018-04-26T05:02:46.747Z,3.13
2018-04-26T05:05:12.636Z,3.60
2018-04-26T05:07:38.522Z,3.10
2018-04-26T05:10:04.374Z,3.13
2018-04-26T05:12:30.225Z,3.53
2018-04-26T05:14:56.086Z,3.40
2018-04-26T05:17:21.967Z,3.40
2018-04-26T05:19:47.901Z,3.23
2018-04-26T05:22:13.733Z,3.13
2018-04-26T05:24:39.589Z,3.70
2018-04-26T05:27:05.421Z,3.30
2018-04-26T05:29:31.243Z,3.50
2018-04-26T05:31:57.174Z,3.53
2018-04-26T05:34:23.011Z,3.37
2018-04-26T05:36:49.015Z,4.07
2018-04-26T05:39:14.885Z,3.80
2018-04-26T05:41:41.656Z,3.23
2018-04-26T05:44:07.597Z,3.10
2018-04-26T05:46:33.478Z,3.23
2018-04-26T05:48:59.343Z,3.20
2018-04-26T05:51:25.195Z,3.50
2018-04-26T05:53:51.074Z,3.10
2018-04-26T05:56:16.945Z,3.60
2018-04-26T05:58:42.868Z,2.90
2018-04-26T06:01:08.727Z,3.30
2018-04-26T06:03:34.580Z,3.10
2018-04-26T06:06:00.440Z,3.47
2018-04-26T06:08:26.296Z,3.13
2018-04-26T06:10:52.193Z,3.23
2018-04-26T06:13:18.133Z,2.83
2018-04-26T06:15:43.999Z,3.17
2018-04-26T06:18:09.977Z,2.80
2018-04-26T06:20:35.830Z,2.83
2018-04-26T06:23:01.726Z,2.93
2018-04-26T06:25:27.627Z,2.77
2018-04-26T06:27:53.470Z,2.73
2018-04-26T06:30:19.326Z,2.80
2018-04-26T06:32:45.203Z,3.00
2018-04-26T06:35:11.311Z,2.90
2018-04-26T06:37:37.154Z,3.13
2018-04-26T06:42:35.789Z,2.83
2018-04-26T06:45:01.670Z,3.07
2018-04-26T06:47:27.591Z,2.80
2018-04-26T06:49:53.457Z,3.17
2018-04-26T06:52:19.338Z,2.83
2018-04-26T06:54:45.179Z,2.93
2018-04-26T06:57:11.033Z,2.57
2018-04-26T06:59:36.879Z,2.50
2018-04-26T07:02:02.786Z,3.23
2018-04-26T07:04:28.624Z,2.30
2018-04-26T07:06:54.495Z,2.70
2018-04-26T07:09:20.352Z,2.40
2018-04-26T07:11:46.204Z,2.83
2018-04-26T07:14:12.062Z,2.27
2018-04-26T07:16:37.975Z,1.67
2018-04-26T07:19:03.813Z,2.00
2018-04-26T07:21:29.678Z,1.80
2018-04-26T07:23:55.539Z,1.60
2018-04-26T07:26:21.517Z,1.87
2018-04-26T07:28:47.375Z,1.87
2018-04-26T07:31:13.217Z,2.23
2018-04-26T07:33:39.102Z,2.13
2018-04-26T07:36:04.964Z,2.00
2018-04-26T07:38:30.879Z,2.50
2018-04-26T07:40:56.765Z,2.43
2018-04-26T07:43:22.685Z,2.47
2018-04-26T07:45:48.564Z,1.97
2018-04-26T07:48:14.437Z,2.40
2018-04-26T07:50:40.310Z,2.33
2018-04-26T07:53:06.188Z,2.20
2018-04-26T07:55:32.059Z,2.20
2018-04-26T07:57:57.931Z,2.07
2018-04-26T08:00:23.775Z,2.30
2018-04-26T08:02:49.611Z,2.17
2018-04-26T08:05:15.464Z,2.00
2018-04-26T08:07:41.275Z,2.20
2018-04-26T08:10:10.041Z,2.30
2018-04-26T08:12:35.882Z,2.00
2018-04-26T08:15:01.720Z,2.10
2018-04-26T08:17:27.603Z,1.90
2018-04-26T08:19:53.450Z,2.03
2018-04-26T08:22:19.306Z,2.00
2018-04-26T08:24:45.155Z,1.80
2018-04-26T08:27:10.971Z,2.13
2018-04-26T08:29:36.813Z,2.37
2018-04-26T08:32:02.721Z,2.20
2018-04-26T08:34:28.590Z,2.10
2018-04-26T08:36:54.490Z,2.20
2018-04-26T08:39:20.345Z,2.27
2018-04-26T08:41:46.212Z,2.20
2018-04-26T08:44:12.061Z,1.97
2018-04-26T08:46:38.026Z,2.20
2018-04-26T08:49:03.868Z,2.55
2018-04-26T08:51:29.690Z,2.10
2018-04-26T08:53:55.533Z,1.97
2018-04-26T08:56:21.382Z,2.50
2018-04-26T08:58:47.237Z,2.70
2018-04-26T09:01:13.071Z,1.93
2018-04-26T09:03:38.937Z,1.77
2018-04-26T09:06:04.823Z,1.80
2018-04-26T09:08:30.681Z,1.70
2018-04-26T09:10:56.661Z,1.73
2018-04-26T09:13:22.513Z,1.70
2018-04-26T09:15:48.430Z,2.00
2018-04-26T09:18:14.266Z,2.10
2018-04-26T09:20:40.101Z,2.00
2018-04-26T09:23:05.959Z,2.20
2018-04-26T09:25:31.789Z,1.77
2018-04-26T09:27:57.617Z,2.83
2018-04-26T09:30:23.485Z,2.90
2018-04-26T09:32:49.313Z,2.30
2018-04-26T09:35:15.174Z,2.23
2018-04-26T09:37:41.045Z,2.10
2018-04-26T09:40:06.912Z,2.17
2018-04-26T09:42:32.751Z,2.07
2018-04-26T09:44:58.639Z,2.00
2018-04-26T09:47:24.466Z,1.90
2018-04-26T09:49:50.349Z,1.83
2018-04-26T09:52:16.173Z,2.00
2018-04-26T09:54:42.048Z,2.03
2018-04-26T09:57:07.925Z,1.90
2018-04-26T09:59:33.767Z,2.03
2018-04-26T10:02:02.489Z,2.05
2018-04-26T10:04:28.421Z,2.33
2018-04-26T10:06:59.200Z,1.95
2018-04-26T10:09:25.075Z,2.00
2018-04-26T10:11:50.944Z,2.25
2018-04-26T10:14:16.821Z,1.85
2018-04-26T10:16:42.782Z,1.80
2018-04-26T10:19:08.624Z,1.77
2018-04-26T10:21:34.485Z,1.90
2018-04-26T10:24:00.340Z,1.80
2018-04-26T10:26:26.211Z,2.10
2018-04-26T10:28:52.035Z,1.90
2018-04-26T10:31:17.967Z,1.80
2018-04-26T10:33:43.840Z,1.90
2018-04-26T10:36:09.685Z,1.80
2018-04-26T10:38:35.544Z,1.87
2018-04-26T10:41:01.390Z,1.73
2018-04-26T10:43:27.279Z,1.90
2018-04-26T10:45:53.156Z,2.10
2018-04-26T10:48:19.001Z,2.00
2018-04-26T10:50:44.849Z,1.98
2018-04-26T10:53:10.706Z,1.80
2018-04-26T10:55:36.583Z,1.95
2018-04-26T10:58:02.446Z,1.87
2018-04-26T11:00:28.303Z,2.30
2018-04-26T11:02:54.120Z,1.92
2018-04-26T11:05:19.997Z,1.95
2018-04-26T11:07:45.816Z,2.00
2018-04-26T11:10:11.752Z,2.10
2018-04-26T11:12:37.651Z,2.40
2018-04-26T11:15:03.544Z,2.28
2018-04-26T11:17:29.407Z,2.00
2018-04-26T11:19:55.244Z,2.20
2018-04-26T11:22:21.132Z,2.12
2018-04-26T11:24:46.951Z,2.20
2018-04-26T11:27:12.807Z,2.17
2018-04-26T11:29:38.653Z,2.03
2018-04-26T11:32:05.243Z,2.00
2018-04-26T11:34:31.110Z,1.85
2018-04-26T11:36:56.947Z,2.08
2018-04-26T11:39:22.788Z,2.30
2018-04-26T11:41:48.637Z,1.95
2018-04-26T11:44:14.495Z,2.42
2018-04-26T11:46:40.428Z,2.30
2018-04-26T11:49:06.375Z,1.90
2018-04-26T11:51:32.228Z,2.37
2018-04-26T11:53:58.102Z,2.08
2018-04-26T11:56:24.008Z,2.08
2018-04-26T11:58:49.869Z,2.00
2018-04-26T12:01:15.734Z,1.90
2018-04-26T12:03:41.588Z,2.25
2018-04-26T12:06:07.489Z,2.30
2018-04-26T12:08:33.422Z,2.15
2018-04-26T12:10:59.347Z,2.28
2018-04-26T12:13:25.205Z,2.10
2018-04-26T12:15:51.044Z,2.12
2018-04-26T12:18:16.858Z,1.95
2018-04-26T12:20:42.803Z,2.53
2018-04-26T12:23:08.631Z,2.10
2018-04-26T12:25:34.487Z,2.50
2018-04-26T12:28:00.329Z,2.30
2018-04-26T12:30:26.193Z,2.33
2018-04-26T12:32:52.024Z,2.20
2018-04-26T12:35:17.929Z,2.37
2018-04-26T12:37:43.785Z,2.08
2018-04-26T12:40:09.649Z,1.83
2018-04-26T12:42:35.525Z,2.08
2018-04-26T12:45:01.373Z,2.10
2018-04-26T12:47:27.224Z,2.12
2018-04-26T12:49:53.091Z,2.00
2018-04-26T12:52:18.953Z,2.00
2018-04-26T12:54:44.795Z,1.85
2018-04-26T12:57:10.648Z,2.40
2018-04-26T12:59:36.537Z,1.73
2018-04-26T13:02:02.397Z,2.12
2018-04-26T13:04:28.272Z,2.08
2018-04-26T13:06:54.126Z,2.00
2018-04-26T13:09:19.958Z,2.10
2018-04-26T13:11:45.842Z,2.58
2018-04-26T13:14:11.724Z,2.03
2018-04-26T13:16:37.595Z,1.90
2018-04-26T13:19:03.441Z,2.17
2018-04-26T13:21:29.369Z,1.70
2018-04-26T13:23:55.216Z,2.05
2018-04-26T13:26:21.066Z,1.87
2018-04-26T13:28:47.125Z,2.05
2018-04-26T13:31:13.003Z,2.00
2018-04-26T13:33:38.856Z,1.70
2018-04-26T13:36:04.721Z,1.90
2018-04-26T13:38:30.605Z,1.85
2018-04-26T13:40:56.459Z,1.77
2018-04-26T13:43:22.329Z,2.15
2018-04-26T13:45:48.250Z,1.95
2018-04-26T13:48:14.205Z,1.80
2018-04-26T13:50:40.071Z,1.80
2018-04-26T13:53:05.944Z,1.83
2018-04-26T13:55:31.808Z,1.60
2018-04-26T13:57:57.704Z,1.87
2018-04-26T14:00:23.596Z,1.83
2018-04-26T14:02:49.428Z,2.05
2018-04-26T14:05:15.294Z,2.03
2018-04-26T14:07:41.169Z,2.20
2018-04-26T14:10:07.083Z,2.00
2018-04-26T14:12:32.984Z,1.92
2018-04-26T14:14:58.846Z,1.87
2018-04-26T14:17:24.770Z,1.83
2018-04-26T14:19:50.566Z,1.83
2018-04-26T14:22:16.395Z,1.80
2018-04-26T14:24:42.229Z,1.50
2018-04-26T14:27:08.064Z,1.83
2018-04-26T14:29:33.982Z,1.73
2018-04-26T14:31:59.766Z,1.70
2018-04-26T14:34:25.630Z,1.95
2018-04-26T14:36:51.471Z,1.87
2018-04-26T14:39:17.341Z,2.00
2018-04-26T14:41:43.213Z,2.07
2018-04-26T14:44:09.060Z,2.05
2018-04-26T14:46:34.922Z,2.17
2018-04-26T14:49:00.782Z,2.10
2018-04-26T14:51:26.661Z,2.10
2018-04-26T14:53:52.516Z,2.00
2018-04-26T14:56:18.417Z,2.00
2018-04-26T14:58:44.270Z,1.90
2018-04-26T15:01:10.150Z,2.00
2018-04-26T15:03:36.020Z,2.20
2018-04-26T15:06:01.897Z,2.00
2018-04-26T15:08:27.774Z,1.83
2018-04-26T15:10:53.691Z,2.03
2018-04-26T15:13:19.540Z,1.63
2018-04-26T15:15:45.404Z,2.00
2018-04-26T15:18:11.254Z,1.70
2018-04-26T15:20:37.130Z,2.00
2018-04-26T15:23:03.003Z,1.97
2018-04-26T15:25:28.937Z,2.00
2018-04-26T15:27:54.792Z,1.97
2018-04-26T15:30:20.639Z,2.10
2018-04-26T15:32:46.505Z,2.13
2018-04-26T15:35:12.359Z,2.07
2018-04-26T15:37:38.309Z,1.90
2018-04-26T15:40:04.154Z,1.90
2018-04-26T15:42:30.040Z,2.00
2018-04-26T15:44:55.887Z,1.80
2018-04-26T15:47:21.717Z,1.93
2018-04-26T15:49:47.563Z,2.03
2018-04-26T15:52:13.500Z,1.80
2018-04-26T15:54:45.421Z,2.00
2018-04-26T15:57:23.675Z,1.87
2018-04-26T15:59:55.702Z,1.60
2018-04-26T16:02:33.727Z,1.80
2018-04-26T16:05:11.812Z,2.00
2018-04-26T16:07:50.124Z,1.97
2018-04-26T16:10:22.143Z,1.93
2018-04-26T16:13:00.366Z,1.53
2018-04-26T16:15:32.260Z,1.50
2018-04-26T16:18:10.480Z,1.60
2018-04-26T16:20:48.696Z,1.53
2018-04-26T16:23:26.969Z,1.30
2018-04-26T16:25:58.883Z,1.53
2018-04-26T16:28:37.048Z,1.70
2018-04-26T16:31:15.316Z,2.00
2018-04-26T16:33:47.201Z,2.00
2018-04-26T16:36:19.206Z,2.10
2018-04-26T16:38:48.094Z,1.63
2018-04-26T16:41:13.934Z,1.50
2018-04-26T16:43:39.772Z,1.80
2018-04-26T16:46:05.635Z,1.60
2018-04-26T16:48:31.477Z,1.67
2018-04-26T16:50:57.363Z,1.80
2018-04-26T16:53:23.199Z,2.03
2018-04-26T16:55:49.151Z,1.77
2018-04-26T16:58:14.952Z,1.87
2018-04-26T17:00:40.810Z,1.83
2018-04-26T17:03:06.656Z,1.70
2018-04-26T17:05:32.504Z,1.60
2018-04-26T17:07:58.323Z,1.53
2018-04-26T17:10:24.201Z,1.80
2018-04-26T17:12:50.042Z,1.83
2018-04-26T17:15:15.967Z,1.60
2018-04-26T17:17:41.852Z,1.53
2018-04-26T17:20:07.680Z,1.67
2018-04-26T17:22:33.613Z,1.70
2018-04-26T17:24:59.418Z,1.70
2018-04-26T17:27:25.248Z,1.53
2018-04-26T17:29:51.102Z,2.13
2018-04-26T17:32:16.923Z,1.80
2018-04-26T17:34:42.866Z,1.70
2018-04-26T17:37:08.707Z,1.60
2018-04-26T17:39:34.553Z,2.00
2018-04-26T17:42:00.450Z,1.80
2018-04-26T17:44:26.317Z,2.13
2018-04-26T17:46:52.176Z,1.83
2018-04-26T17:49:18.054Z,1.50
2018-04-26T17:51:43.894Z,1.60
2018-04-26T17:54:09.790Z,1.70
2018-04-26T17:56:35.663Z,2.20
2018-04-26T17:59:01.545Z,1.73
2018-04-26T18:01:27.379Z,2.60
2018-04-26T18:03:53.236Z,2.10
2018-04-26T18:06:19.106Z,1.70
2018-04-26T18:08:44.953Z,1.80
2018-04-26T18:11:10.814Z,2.57
2018-04-26T18:13:36.680Z,2.10
2018-04-26T18:16:02.544Z,2.30
2018-04-26T18:18:28.446Z,1.90
2018-04-26T18:20:54.323Z,2.30
2018-04-26T18:23:20.140Z,2.17
2018-04-26T18:25:45.967Z,2.10
2018-04-26T18:28:11.821Z,2.17
2018-04-26T18:30:37.654Z,2.10
2018-04-26T18:33:03.557Z,2.50
2018-04-26T18:35:29.424Z,2.70
2018-04-26T18:37:55.261Z,2.60
2018-04-26T18:40:21.102Z,1.80
2018-04-26T18:42:46.967Z,2.23
2018-04-26T18:45:12.826Z,2.43
2018-04-26T18:47:38.752Z,2.47
2018-04-26T18:50:04.601Z,2.00
2018-04-26T18:52:30.469Z,2.10
2018-04-26T18:54:56.345Z,1.93
2018-04-26T18:57:22.199Z,2.03
2018-04-26T18:59:48.060Z,2.10
2018-04-26T19:02:13.936Z,2.17
2018-04-26T19:04:39.792Z,2.10
2018-04-26T19:07:05.662Z,2.17
2018-04-26T19:09:31.501Z,3.07
2018-04-26T19:11:57.345Z,2.70
2018-04-26T19:14:23.251Z,2.50
2018-04-26T19:16:49.117Z,2.30
2018-04-26T19:19:14.968Z,1.90
2018-04-26T19:21:40.859Z,2.13
2018-04-26T19:24:06.903Z,2.33
2018-04-26T19:26:32.716Z,1.90
2018-04-26T19:28:58.599Z,2.30
2018-04-26T19:31:24.442Z,2.03
2018-04-26T19:33:50.301Z,2.50
2018-04-26T19:36:16.193Z,2.50
2018-04-26T19:38:42.028Z,1.70
2018-04-26T19:41:07.869Z,2.40
2018-04-26T19:43:33.703Z,2.10
2018-04-26T19:45:59.603Z,2.20
2018-04-26T19:48:25.491Z,1.97
2018-04-26T19:50:51.370Z,2.20
2018-04-26T19:53:17.242Z,2.20
2018-04-26T19:55:43.093Z,1.87
2018-04-26T19:58:08.993Z,2.20
2018-04-26T20:00:34.842Z,1.80
2018-04-26T20:03:00.674Z,2.27
2018-04-26T20:05:26.528Z,2.20
2018-04-26T20:07:52.346Z,2.37
2018-04-26T20:10:18.318Z,2.43
2018-04-26T20:12:44.143Z,1.87
2018-04-26T20:15:10.020Z,1.80
2018-04-26T20:17:35.888Z,2.37
2018-04-26T20:20:01.760Z,2.07
2018-04-26T20:22:27.633Z,1.90
2018-04-26T20:24:53.501Z,2.07
2018-04-26T20:27:19.382Z,1.90
2018-04-26T20:29:45.325Z,2.20
2018-04-26T20:32:11.107Z,2.10
2018-04-26T20:34:36.968Z,1.73
2018-04-26T20:37:02.832Z,2.30
2018-04-26T20:39:28.664Z,2.23
2018-04-26T20:41:54.574Z,2.20
2018-04-26T20:44:26.464Z,2.20
2018-04-26T20:46:52.295Z,2.47
2018-04-26T20:49:18.175Z,2.63
2018-04-26T20:51:44.197Z,2.23
2018-04-26T20:54:10.383Z,2.03
2018-04-26T20:56:36.265Z,2.30
2018-04-26T20:59:02.520Z,1.73
2018-04-26T21:01:29.157Z,2.37
2018-04-26T21:03:55.152Z,2.37
2018-04-26T21:06:21.057Z,2.03
2018-04-26T21:08:46.952Z,1.93
2018-04-26T21:11:12.854Z,2.50
2018-04-26T21:13:38.752Z,2.10
2018-04-26T21:16:04.635Z,1.90
2018-04-26T21:18:30.527Z,1.90
2018-04-26T21:20:56.451Z,2.20
2018-04-26T21:23:22.350Z,1.90
2018-04-26T21:25:48.230Z,2.07
2018-04-26T21:28:14.167Z,2.60
2018-04-26T21:30:40.054Z,2.30
2018-04-26T21:33:05.929Z,2.77
2018-04-26T21:35:31.860Z,2.30
2018-04-26T21:37:57.701Z,2.20
2018-04-26T21:40:30.685Z,2.80
2018-04-26T21:42:56.591Z,3.00
2018-04-26T21:45:22.476Z,3.40
2018-04-26T21:47:48.383Z,2.93
2018-04-26T21:50:20.465Z,2.80
2018-04-26T21:52:52.327Z,3.10
2018-04-26T21:55:24.234Z,2.87
2018-04-26T21:57:56.145Z,2.33
2018-04-26T22:00:28.101Z,2.17
2018-04-26T22:02:53.902Z,2.50
2018-04-26T22:05:26.743Z,3.40
2018-04-26T22:07:52.626Z,2.90
2018-04-26T22:10:18.482Z,2.63
2018-04-26T22:12:44.391Z,2.50
2018-04-26T22:15:10.306Z,2.37
2018-04-26T22:17:36.199Z,2.53
2018-04-26T22:20:02.069Z,2.43
2018-04-26T22:22:27.949Z,2.60
2018-04-26T22:24:53.814Z,2.50
2018-04-26T22:27:19.684Z,2.57
2018-04-26T22:29:45.544Z,2.40
2018-04-26T22:32:11.437Z,2.30
2018-04-26T22:34:37.292Z,2.47
2018-04-26T22:37:03.302Z,2.57
2018-04-26T22:39:29.205Z,2.77
2018-04-26T22:41:55.057Z,2.57
2018-04-26T22:44:20.952Z,2.23
2018-04-26T22:46:46.840Z,2.50
2018-04-26T22:49:12.712Z,2.50
2018-04-26T22:51:38.670Z,2.30
2018-04-26T22:54:04.620Z,2.50
2018-04-26T22:56:30.508Z,2.20
2018-04-26T22:58:56.369Z,2.50
2018-04-26T23:01:22.253Z,2.70
2018-04-26T23:03:48.137Z,2.60
2018-04-26T23:06:14.045Z,2.50
2018-04-26T23:08:39.942Z,2.43
2018-04-26T23:11:05.801Z,2.27
2018-04-26T23:13:31.668Z,2.37
2018-04-26T23:15:57.553Z,2.60
2018-04-26T23:18:23.402Z,2.60
2018-04-26T23:20:49.336Z,2.67
2018-04-26T23:23:15.182Z,2.53
2018-04-26T23:25:41.084Z,2.07
2018-04-26T23:28:06.963Z,2.20
2018-04-26T23:30:32.840Z,2.80
2018-04-26T23:32:58.724Z,2.50
2018-04-26T23:35:24.641Z,2.50
2018-04-26T23:37:50.568Z,2.47
2018-04-26T23:40:16.490Z,2.80
2018-04-26T23:42:42.402Z,3.23
2018-04-26T23:45:08.254Z,2.97
2018-04-26T23:47:34.174Z,2.60
2018-04-26T23:50:00.041Z,2.80
2018-04-26T23:52:25.954Z,2.70
2018-04-26T23:54:51.833Z,2.63
2018-04-26T23:57:17.718Z,2.80
2018-04-26T23:59:43.582Z,2.07
